sensor_id;sensor_type;location;lat;lon;timestamp;P1;durP1;ratioP1;P2;durP2;ratioP2
29814;SDS011;16708;50.426;7.664;2022-09-12T00:02:19;18.40;;;9.00;;
29814;SDS011;16708;50.426;7.664;2022-09-12T00:07:14;20.00;;;9.50;;
29814;SDS011;16708;50.426;7.664;2022-09-12T00:12:07;19.20;;;9.60;;
29814;SDS011;16708;50.426;7.664;2022-09-12T00:17:02;20.90;;;10.30;;
29814;SDS011;16708;50.426;7.664;2022-09-12T00:21:56;19.50;;;9.60;;
29814;SDS011;16708;50.426;7.664;2022-09-12T00:26:51;19.90;;;9.80;;
29814;SDS011;16708;50.426;7.664;2022-09-12T00:31:45;18.70;;;9.50;;
29814;SDS011;16708;50.426;7.664;2022-09-12T00:36:39;18.40;;;9.30;;
29814;SDS011;16708;50.426;7.664;2022-09-12T00:41:33;15.50;;;8.70;;
29814;SDS011;16708;50.426;7.664;2022-09-12T00:46:28;18.00;;;8.80;;
29814;SDS011;16708;50.426;7.664;2022-09-12T00:51:22;19.30;;;10.00;;
29814;SDS011;16708;50.426;7.664;2022-09-12T00:56:16;20.70;;;10.20;;
29814;SDS011;16708;50.426;7.664;2022-09-12T01:01:11;19.00;;;8.40;;
29814;SDS011;16708;50.426;7.664;2022-09-12T01:06:05;20.40;;;9.90;;
29814;SDS011;16708;50.426;7.664;2022-09-12T01:11:00;20.90;;;9.90;;
29814;SDS011;16708;50.426;7.664;2022-09-12T01:20:46;22.50;;;10.10;;
29814;SDS011;16708;50.426;7.664;2022-09-12T01:25:41;21.10;;;10.30;;
29814;SDS011;16708;50.426;7.664;2022-09-12T01:30:35;20.70;;;10.30;;
29814;SDS011;16708;50.426;7.664;2022-09-12T01:35:30;19.60;;;10.00;;
29814;SDS011;16708;50.426;7.664;2022-09-12T01:40:24;22.50;;;11.60;;
29814;SDS011;16708;50.426;7.664;2022-09-12T01:45:19;21.20;;;10.40;;
29814;SDS011;16708;50.426;7.664;2022-09-12T01:50:13;19.80;;;9.50;;
29814;SDS011;16708;50.426;7.664;2022-09-12T01:55:06;19.60;;;9.30;;
29814;SDS011;16708;50.426;7.664;2022-09-12T02:00:01;20.70;;;10.00;;
29814;SDS011;16708;50.426;7.664;2022-09-12T02:04:55;27.20;;;13.80;;
29814;SDS011;16708;50.426;7.664;2022-09-12T02:09:50;24.30;;;10.90;;
29814;SDS011;16708;50.426;7.664;2022-09-12T02:14:44;28.40;;;13.70;;
29814;SDS011;16708;50.426;7.664;2022-09-12T02:19:38;33.40;;;16.00;;
29814;SDS011;16708;50.426;7.664;2022-09-12T02:24:32;44.00;;;19.70;;
29814;SDS011;16708;50.426;7.664;2022-09-12T02:29:27;31.20;;;16.30;;
29814;SDS011;16708;50.426;7.664;2022-09-12T02:34:21;31.40;;;14.90;;
29814;SDS011;16708;50.426;7.664;2022-09-12T02:39:15;26.20;;;14.30;;
29814;SDS011;16708;50.426;7.664;2022-09-12T02:44:10;25.80;;;13.00;;
29814;SDS011;16708;50.426;7.664;2022-09-12T02:49:04;26.90;;;13.20;;
29814;SDS011;16708;50.426;7.664;2022-09-12T02:53:59;31.30;;;14.40;;
29814;SDS011;16708;50.426;7.664;2022-09-12T02:58:53;25.90;;;13.10;;
29814;SDS011;16708;50.426;7.664;2022-09-12T03:08:42;24.00;;;12.00;;
29814;SDS011;16708;50.426;7.664;2022-09-12T03:18:31;22.60;;;11.30;;
29814;SDS011;16708;50.426;7.664;2022-09-12T03:23:26;26.10;;;12.20;;
29814;SDS011;16708;50.426;7.664;2022-09-12T03:28:20;27.50;;;12.70;;
29814;SDS011;16708;50.426;7.664;2022-09-12T03:33:15;32.60;;;13.60;;
29814;SDS011;16708;50.426;7.664;2022-09-12T03:38:09;42.40;;;17.30;;
29814;SDS011;16708;50.426;7.664;2022-09-12T03:43:04;28.30;;;13.10;;
29814;SDS011;16708;50.426;7.664;2022-09-12T03:47:58;30.90;;;13.80;;
29814;SDS011;16708;50.426;7.664;2022-09-12T03:52:52;27.10;;;11.70;;
29814;SDS011;16708;50.426;7.664;2022-09-12T03:57:45;26.10;;;11.90;;
29814;SDS011;16708;50.426;7.664;2022-09-12T04:02:37;28.80;;;13.00;;
29814;SDS011;16708;50.426;7.664;2022-09-12T04:07:31;22.90;;;11.20;;
29814;SDS011;16708;50.426;7.664;2022-09-12T04:12:25;42.20;;;16.30;;
29814;SDS011;16708;50.426;7.664;2022-09-12T04:17:20;46.20;;;17.50;;
29814;SDS011;16708;50.426;7.664;2022-09-12T04:22:14;40.80;;;16.10;;
29814;SDS011;16708;50.426;7.664;2022-09-12T04:27:09;31.80;;;14.10;;
29814;SDS011;16708;50.426;7.664;2022-09-12T04:32:04;41.30;;;16.40;;
29814;SDS011;16708;50.426;7.664;2022-09-12T04:36:58;40.20;;;16.50;;
29814;SDS011;16708;50.426;7.664;2022-09-12T04:41:53;43.10;;;17.40;;
29814;SDS011;16708;50.426;7.664;2022-09-12T04:46:47;39.70;;;15.50;;
29814;SDS011;16708;50.426;7.664;2022-09-12T04:51:41;44.70;;;17.90;;
29814;SDS011;16708;50.426;7.664;2022-09-12T04:56:36;29.40;;;14.10;;
29814;SDS011;16708;50.426;7.664;2022-09-12T05:01:31;31.80;;;13.70;;
29814;SDS011;16708;50.426;7.664;2022-09-12T05:06:25;33.80;;;15.30;;
29814;SDS011;16708;50.426;7.664;2022-09-12T05:11:19;29.50;;;13.00;;
29814;SDS011;16708;50.426;7.664;2022-09-12T05:16:14;33.00;;;15.00;;
29814;SDS011;16708;50.426;7.664;2022-09-12T05:21:09;39.30;;;19.10;;
29814;SDS011;16708;50.426;7.664;2022-09-12T05:26:03;45.00;;;19.70;;
29814;SDS011;16708;50.426;7.664;2022-09-12T05:30:57;44.60;;;19.80;;
29814;SDS011;16708;50.426;7.664;2022-09-12T05:35:52;38.70;;;18.40;;
29814;SDS011;16708;50.426;7.664;2022-09-12T05:40:45;37.10;;;16.20;;
29814;SDS011;16708;50.426;7.664;2022-09-12T05:45:40;37.90;;;16.40;;
29814;SDS011;16708;50.426;7.664;2022-09-12T05:50:35;36.10;;;14.70;;
29814;SDS011;16708;50.426;7.664;2022-09-12T05:55:29;35.70;;;15.40;;
29814;SDS011;16708;50.426;7.664;2022-09-12T06:00:24;39.60;;;15.50;;
29814;SDS011;16708;50.426;7.664;2022-09-12T06:05:18;34.50;;;14.70;;
29814;SDS011;16708;50.426;7.664;2022-09-12T06:10:13;29.90;;;14.30;;
29814;SDS011;16708;50.426;7.664;2022-09-12T06:15:07;26.50;;;12.50;;
29814;SDS011;16708;50.426;7.664;2022-09-12T06:20:02;27.20;;;13.20;;
29814;SDS011;16708;50.426;7.664;2022-09-12T06:24:57;22.40;;;11.60;;
29814;SDS011;16708;50.426;7.664;2022-09-12T06:29:52;25.70;;;11.40;;
29814;SDS011;16708;50.426;7.664;2022-09-12T06:34:46;22.50;;;11.40;;
29814;SDS011;16708;50.426;7.664;2022-09-12T06:39:41;25.50;;;12.40;;
29814;SDS011;16708;50.426;7.664;2022-09-12T06:44:36;25.50;;;11.50;;
29814;SDS011;16708;50.426;7.664;2022-09-12T06:49:30;21.50;;;11.30;;
29814;SDS011;16708;50.426;7.664;2022-09-12T06:54:24;23.90;;;10.30;;
29814;SDS011;16708;50.426;7.664;2022-09-12T06:59:19;21.20;;;10.50;;
29814;SDS011;16708;50.426;7.664;2022-09-12T07:04:13;22.40;;;10.80;;
29814;SDS011;16708;50.426;7.664;2022-09-12T07:09:08;24.30;;;11.20;;
29814;SDS011;16708;50.426;7.664;2022-09-12T07:14:03;18.00;;;10.00;;
29814;SDS011;16708;50.426;7.664;2022-09-12T07:18:58;17.80;;;9.10;;
29814;SDS011;16708;50.426;7.664;2022-09-12T07:23:52;18.30;;;9.10;;
29814;SDS011;16708;50.426;7.664;2022-09-12T07:28:47;17.30;;;8.90;;
29814;SDS011;16708;50.426;7.664;2022-09-12T07:33:41;18.00;;;9.40;;
29814;SDS011;16708;50.426;7.664;2022-09-12T07:38:36;17.00;;;8.50;;
29814;SDS011;16708;50.426;7.664;2022-09-12T07:43:31;14.40;;;8.50;;
29814;SDS011;16708;50.426;7.664;2022-09-12T07:48:25;18.30;;;9.30;;
29814;SDS011;16708;50.426;7.664;2022-09-12T07:53:19;12.80;;;7.80;;
29814;SDS011;16708;50.426;7.664;2022-09-12T07:58:13;13.50;;;7.60;;
29814;SDS011;16708;50.426;7.664;2022-09-12T08:03:10;11.90;;;7.40;;
29814;SDS011;16708;50.426;7.664;2022-09-12T08:08:02;12.20;;;7.50;;
29814;SDS011;16708;50.426;7.664;2022-09-12T08:12:57;11.30;;;6.90;;
29814;SDS011;16708;50.426;7.664;2022-09-12T08:17:52;12.40;;;6.40;;
29814;SDS011;16708;50.426;7.664;2022-09-12T08:22:46;11.10;;;6.20;;
29814;SDS011;16708;50.426;7.664;2022-09-12T08:27:42;9.80;;;6.00;;
29814;SDS011;16708;50.426;7.664;2022-09-12T08:32:36;7.70;;;5.80;;
29814;SDS011;16708;50.426;7.664;2022-09-12T08:37:31;12.10;;;5.70;;
29814;SDS011;16708;50.426;7.664;2022-09-12T08:42:26;11.40;;;5.80;;
29814;SDS011;16708;50.426;7.664;2022-09-12T08:47:21;10.20;;;5.80;;
29814;SDS011;16708;50.426;7.664;2022-09-12T08:52:15;6.90;;;5.00;;
29814;SDS011;16708;50.426;7.664;2022-09-12T08:57:10;9.00;;;5.10;;
29814;SDS011;16708;50.426;7.664;2022-09-12T09:02:05;7.70;;;5.20;;
29814;SDS011;16708;50.426;7.664;2022-09-12T09:07:00;7.30;;;5.40;;
29814;SDS011;16708;50.426;7.664;2022-09-12T09:16:50;9.40;;;5.40;;
29814;SDS011;16708;50.426;7.664;2022-09-12T09:21:46;6.10;;;5.40;;
29814;SDS011;16708;50.426;7.664;2022-09-12T09:26:42;8.80;;;5.00;;
29814;SDS011;16708;50.426;7.664;2022-09-12T09:36:33;6.50;;;5.10;;
29814;SDS011;16708;50.426;7.664;2022-09-12T09:41:26;9.80;;;5.30;;
29814;SDS011;16708;50.426;7.664;2022-09-12T09:46:21;6.30;;;4.90;;
29814;SDS011;16708;50.426;7.664;2022-09-12T09:51:16;6.90;;;5.20;;
29814;SDS011;16708;50.426;7.664;2022-09-12T10:01:07;6.00;;;5.20;;
29814;SDS011;16708;50.426;7.664;2022-09-12T10:06:03;6.00;;;4.80;;
29814;SDS011;16708;50.426;7.664;2022-09-12T10:20:47;6.50;;;4.50;;
29814;SDS011;16708;50.426;7.664;2022-09-12T10:25:42;6.00;;;4.60;;
29814;SDS011;16708;50.426;7.664;2022-09-12T10:30:36;5.00;;;4.00;;
29814;SDS011;16708;50.426;7.664;2022-09-12T10:35:35;5.40;;;4.50;;
29814;SDS011;16708;50.426;7.664;2022-09-12T10:40:27;5.20;;;4.10;;
29814;SDS011;16708;50.426;7.664;2022-09-12T10:50:17;5.30;;;3.90;;
29814;SDS011;16708;50.426;7.664;2022-09-12T11:00:07;4.20;;;3.80;;
29814;SDS011;16708;50.426;7.664;2022-09-12T11:05:01;3.90;;;3.50;;
29814;SDS011;16708;50.426;7.664;2022-09-12T11:14:49;4.40;;;3.60;;
29814;SDS011;16708;50.426;7.664;2022-09-12T11:19:45;6.00;;;4.00;;
29814;SDS011;16708;50.426;7.664;2022-09-12T11:29:35;3.60;;;3.30;;
29814;SDS011;16708;50.426;7.664;2022-09-12T11:34:29;4.50;;;3.70;;
29814;SDS011;16708;50.426;7.664;2022-09-12T11:39:24;4.70;;;3.40;;
29814;SDS011;16708;50.426;7.664;2022-09-12T11:44:19;3.70;;;3.40;;
29814;SDS011;16708;50.426;7.664;2022-09-12T11:49:14;4.60;;;3.70;;
29814;SDS011;16708;50.426;7.664;2022-09-12T11:54:08;5.10;;;3.30;;
29814;SDS011;16708;50.426;7.664;2022-09-12T11:59:03;4.30;;;3.40;;
29814;SDS011;16708;50.426;7.664;2022-09-12T12:03:58;3.80;;;3.50;;
29814;SDS011;16708;50.426;7.664;2022-09-12T12:08:53;3.50;;;3.20;;
29814;SDS011;16708;50.426;7.664;2022-09-12T12:13:48;3.40;;;3.00;;
29814;SDS011;16708;50.426;7.664;2022-09-12T12:23:36;4.20;;;3.20;;
29814;SDS011;16708;50.426;7.664;2022-09-12T12:48:09;2.90;;;2.60;;
29814;SDS011;16708;50.426;7.664;2022-09-12T12:53:03;2.80;;;2.50;;
29814;SDS011;16708;50.426;7.664;2022-09-12T12:57:58;2.80;;;2.40;;
29814;SDS011;16708;50.426;7.664;2022-09-12T13:02:54;2.60;;;2.40;;
29814;SDS011;16708;50.426;7.664;2022-09-12T13:07:49;2.50;;;2.30;;
29814;SDS011;16708;50.426;7.664;2022-09-12T13:12:44;2.20;;;2.10;;
29814;SDS011;16708;50.426;7.664;2022-09-12T13:17:38;2.70;;;2.50;;
29814;SDS011;16708;50.426;7.664;2022-09-12T13:32:23;2.60;;;2.40;;
29814;SDS011;16708;50.426;7.664;2022-09-12T13:42:11;3.30;;;2.50;;
29814;SDS011;16708;50.426;7.664;2022-09-12T13:47:06;2.70;;;2.40;;
29814;SDS011;16708;50.426;7.664;2022-09-12T13:52:00;3.00;;;2.30;;
29814;SDS011;16708;50.426;7.664;2022-09-12T13:56:54;2.60;;;2.40;;
29814;SDS011;16708;50.426;7.664;2022-09-12T14:06:44;2.50;;;2.30;;
29814;SDS011;16708;50.426;7.664;2022-09-12T14:11:38;2.60;;;2.40;;
29814;SDS011;16708;50.426;7.664;2022-09-12T14:16:33;3.10;;;2.50;;
29814;SDS011;16708;50.426;7.664;2022-09-12T14:21:28;2.80;;;2.60;;
29814;SDS011;16708;50.426;7.664;2022-09-12T14:26:22;2.90;;;2.40;;
29814;SDS011;16708;50.426;7.664;2022-09-12T14:31:17;2.50;;;2.30;;
29814;SDS011;16708;50.426;7.664;2022-09-12T14:46:02;2.50;;;2.30;;
29814;SDS011;16708;50.426;7.664;2022-09-12T14:50:56;2.20;;;2.00;;
29814;SDS011;16708;50.426;7.664;2022-09-12T14:55:51;2.50;;;2.30;;
29814;SDS011;16708;50.426;7.664;2022-09-12T15:05:41;2.80;;;2.20;;
29814;SDS011;16708;50.426;7.664;2022-09-12T15:15:30;2.50;;;2.30;;
29814;SDS011;16708;50.426;7.664;2022-09-12T15:20:26;2.40;;;2.20;;
29814;SDS011;16708;50.426;7.664;2022-09-12T15:25:20;2.50;;;2.30;;
29814;SDS011;16708;50.426;7.664;2022-09-12T15:30:15;2.60;;;2.40;;
29814;SDS011;16708;50.426;7.664;2022-09-12T15:35:10;2.50;;;2.30;;
29814;SDS011;16708;50.426;7.664;2022-09-12T15:49:53;2.50;;;2.20;;
29814;SDS011;16708;50.426;7.664;2022-09-12T15:54:47;2.90;;;1.90;;
29814;SDS011;16708;50.426;7.664;2022-09-12T15:59:41;4.20;;;2.30;;
29814;SDS011;16708;50.426;7.664;2022-09-12T16:04:35;3.50;;;2.20;;
29814;SDS011;16708;50.426;7.664;2022-09-12T16:09:29;2.40;;;2.20;;
29814;SDS011;16708;50.426;7.664;2022-09-12T16:14:23;2.40;;;2.10;;
29814;SDS011;16708;50.426;7.664;2022-09-12T16:19:17;4.60;;;2.60;;
29814;SDS011;16708;50.426;7.664;2022-09-12T16:24:12;2.70;;;2.30;;
29814;SDS011;16708;50.426;7.664;2022-09-12T16:29:07;2.30;;;2.10;;
29814;SDS011;16708;50.426;7.664;2022-09-12T16:34:02;2.20;;;2.00;;
29814;SDS011;16708;50.426;7.664;2022-09-12T16:38:57;2.70;;;2.50;;
29814;SDS011;16708;50.426;7.664;2022-09-12T16:43:51;4.70;;;2.10;;
29814;SDS011;16708;50.426;7.664;2022-09-12T16:48:46;2.50;;;2.30;;
29814;SDS011;16708;50.426;7.664;2022-09-12T16:53:40;2.70;;;2.50;;
29814;SDS011;16708;50.426;7.664;2022-09-12T16:58:34;3.20;;;2.40;;
29814;SDS011;16708;50.426;7.664;2022-09-12T17:03:28;3.30;;;2.30;;
29814;SDS011;16708;50.426;7.664;2022-09-12T17:08:22;2.50;;;2.10;;
29814;SDS011;16708;50.426;7.664;2022-09-12T17:13:17;3.60;;;2.40;;
29814;SDS011;16708;50.426;7.664;2022-09-12T17:18:12;2.40;;;2.20;;
29814;SDS011;16708;50.426;7.664;2022-09-12T17:23:07;4.60;;;2.40;;
29814;SDS011;16708;50.426;7.664;2022-09-12T17:28:01;5.70;;;2.40;;
29814;SDS011;16708;50.426;7.664;2022-09-12T17:32:55;3.00;;;2.10;;
29814;SDS011;16708;50.426;7.664;2022-09-12T17:37:49;2.90;;;2.60;;
29814;SDS011;16708;50.426;7.664;2022-09-12T17:42:43;3.10;;;2.20;;
29814;SDS011;16708;50.426;7.664;2022-09-12T17:47:38;4.20;;;2.40;;
29814;SDS011;16708;50.426;7.664;2022-09-12T17:52:38;2.40;;;2.20;;
29814;SDS011;16708;50.426;7.664;2022-09-12T17:57:24;2.60;;;2.20;;
29814;SDS011;16708;50.426;7.664;2022-09-12T18:02:18;4.30;;;2.20;;
29814;SDS011;16708;50.426;7.664;2022-09-12T18:07:11;3.40;;;2.40;;
29814;SDS011;16708;50.426;7.664;2022-09-12T18:12:06;3.40;;;2.60;;
29814;SDS011;16708;50.426;7.664;2022-09-12T18:17:00;2.90;;;2.40;;
29814;SDS011;16708;50.426;7.664;2022-09-12T18:21:55;3.40;;;2.60;;
29814;SDS011;16708;50.426;7.664;2022-09-12T18:26:50;4.10;;;2.30;;
29814;SDS011;16708;50.426;7.664;2022-09-12T18:31:45;5.20;;;2.60;;
29814;SDS011;16708;50.426;7.664;2022-09-12T18:36:39;3.90;;;2.60;;
29814;SDS011;16708;50.426;7.664;2022-09-12T18:41:34;4.10;;;2.80;;
29814;SDS011;16708;50.426;7.664;2022-09-12T18:46:28;3.30;;;2.80;;
29814;SDS011;16708;50.426;7.664;2022-09-12T18:51:22;3.50;;;2.50;;
29814;SDS011;16708;50.426;7.664;2022-09-12T18:56:17;3.50;;;2.70;;
29814;SDS011;16708;50.426;7.664;2022-09-12T19:01:12;3.60;;;2.50;;
29814;SDS011;16708;50.426;7.664;2022-09-12T19:06:06;3.40;;;2.60;;
29814;SDS011;16708;50.426;7.664;2022-09-12T19:11:01;4.60;;;2.70;;
29814;SDS011;16708;50.426;7.664;2022-09-12T19:15:55;3.90;;;2.60;;
29814;SDS011;16708;50.426;7.664;2022-09-12T19:20:50;4.60;;;2.60;;
29814;SDS011;16708;50.426;7.664;2022-09-12T19:30:39;4.00;;;2.70;;
29814;SDS011;16708;50.426;7.664;2022-09-12T19:35:34;3.50;;;2.80;;
29814;SDS011;16708;50.426;7.664;2022-09-12T19:40:28;5.30;;;2.40;;
29814;SDS011;16708;50.426;7.664;2022-09-12T19:45:23;5.30;;;2.70;;
29814;SDS011;16708;50.426;7.664;2022-09-12T19:50:18;3.70;;;2.70;;
29814;SDS011;16708;50.426;7.664;2022-09-12T19:55:12;3.70;;;2.50;;
29814;SDS011;16708;50.426;7.664;2022-09-12T20:00:07;3.90;;;2.60;;
29814;SDS011;16708;50.426;7.664;2022-09-12T20:05:02;3.80;;;2.50;;
29814;SDS011;16708;50.426;7.664;2022-09-12T20:09:56;4.00;;;2.90;;
29814;SDS011;16708;50.426;7.664;2022-09-12T20:14:51;6.70;;;2.40;;
29814;SDS011;16708;50.426;7.664;2022-09-12T20:19:46;4.50;;;2.30;;
29814;SDS011;16708;50.426;7.664;2022-09-12T20:24:40;3.90;;;2.20;;
29814;SDS011;16708;50.426;7.664;2022-09-12T20:29:35;4.20;;;2.40;;
29814;SDS011;16708;50.426;7.664;2022-09-12T20:34:30;2.90;;;2.10;;
29814;SDS011;16708;50.426;7.664;2022-09-12T20:39:24;4.90;;;2.40;;
29814;SDS011;16708;50.426;7.664;2022-09-12T20:44:16;2.80;;;2.00;;
29814;SDS011;16708;50.426;7.664;2022-09-12T20:49:10;6.20;;;2.00;;
29814;SDS011;16708;50.426;7.664;2022-09-12T20:54:07;2.60;;;2.10;;
29814;SDS011;16708;50.426;7.664;2022-09-12T20:58:59;3.90;;;1.90;;
29814;SDS011;16708;50.426;7.664;2022-09-12T21:03:53;3.40;;;2.00;;
29814;SDS011;16708;50.426;7.664;2022-09-12T21:08:48;4.60;;;2.30;;
29814;SDS011;16708;50.426;7.664;2022-09-12T21:13:42;4.10;;;2.00;;
29814;SDS011;16708;50.426;7.664;2022-09-12T21:18:36;3.30;;;2.10;;
29814;SDS011;16708;50.426;7.664;2022-09-12T21:23:31;2.40;;;2.10;;
29814;SDS011;16708;50.426;7.664;2022-09-12T21:28:26;3.00;;;2.30;;
29814;SDS011;16708;50.426;7.664;2022-09-12T21:33:21;3.20;;;2.20;;
29814;SDS011;16708;50.426;7.664;2022-09-12T21:38:15;5.50;;;2.20;;
29814;SDS011;16708;50.426;7.664;2022-09-12T21:43:10;5.00;;;2.20;;
29814;SDS011;16708;50.426;7.664;2022-09-12T21:48:05;4.20;;;2.30;;
29814;SDS011;16708;50.426;7.664;2022-09-12T21:52:59;5.70;;;2.40;;
29814;SDS011;16708;50.426;7.664;2022-09-12T21:57:54;4.70;;;2.30;;
29814;SDS011;16708;50.426;7.664;2022-09-12T22:02:49;4.40;;;2.60;;
29814;SDS011;16708;50.426;7.664;2022-09-12T22:07:43;3.10;;;2.50;;
29814;SDS011;16708;50.426;7.664;2022-09-12T22:12:38;3.80;;;2.60;;
29814;SDS011;16708;50.426;7.664;2022-09-12T22:17:33;4.20;;;2.60;;
29814;SDS011;16708;50.426;7.664;2022-09-12T22:22:27;4.90;;;2.60;;
29814;SDS011;16708;50.426;7.664;2022-09-12T22:27:21;4.50;;;2.50;;
29814;SDS011;16708;50.426;7.664;2022-09-12T22:32:16;3.00;;;2.10;;
29814;SDS011;16708;50.426;7.664;2022-09-12T22:37:11;2.70;;;2.40;;
29814;SDS011;16708;50.426;7.664;2022-09-12T22:42:06;3.40;;;2.50;;
29814;SDS011;16708;50.426;7.664;2022-09-12T22:47:00;5.30;;;2.60;;
29814;SDS011;16708;50.426;7.664;2022-09-12T22:51:55;3.20;;;2.50;;
29814;SDS011;16708;50.426;7.664;2022-09-12T22:56:50;4.90;;;2.70;;
29814;SDS011;16708;50.426;7.664;2022-09-12T23:01:47;4.40;;;2.60;;
29814;SDS011;16708;50.426;7.664;2022-09-12T23:06:39;4.30;;;2.70;;
29814;SDS011;16708;50.426;7.664;2022-09-12T23:11:33;4.10;;;3.20;;
29814;SDS011;16708;50.426;7.664;2022-09-12T23:16:27;4.60;;;2.80;;
29814;SDS011;16708;50.426;7.664;2022-09-12T23:21:22;3.70;;;2.90;;
29814;SDS011;16708;50.426;7.664;2022-09-12T23:26:17;4.30;;;3.10;;
29814;SDS011;16708;50.426;7.664;2022-09-12T23:31:11;7.30;;;2.70;;
29814;SDS011;16708;50.426;7.664;2022-09-12T23:36:06;6.20;;;3.30;;
29814;SDS011;16708;50.426;7.664;2022-09-12T23:41:01;7.60;;;3.50;;
29814;SDS011;16708;50.426;7.664;2022-09-12T23:45:55;4.00;;;2.70;;
29814;SDS011;16708;50.426;7.664;2022-09-12T23:50:50;4.10;;;3.10;;
29814;SDS011;16708;50.426;7.664;2022-09-12T23:55:45;6.90;;;3.50;;
